createdAt,value
2022-07-28T00:01:04.957Z,83.50
2022-07-28T00:04:26.976Z,83.80
2022-07-28T00:07:50.152Z,83.80
2022-07-28T00:11:12.003Z,84.00
2022-07-28T00:14:33.813Z,84.50
2022-07-28T00:17:55.643Z,84.30
2022-07-28T00:21:17.554Z,85.40
2022-07-28T00:24:40.682Z,84.50
2022-07-28T00:28:02.496Z,84.10
2022-07-28T00:31:24.394Z,84.50
2022-07-28T00:34:46.335Z,84.60
2022-07-28T00:38:08.230Z,85.10
2022-07-28T00:41:34.666Z,85.60
2022-07-28T00:44:56.557Z,86.30
2022-07-28T00:48:18.377Z,87.00
2022-07-28T00:51:40.554Z,87.50
2022-07-28T00:55:04.595Z,87.80
2022-07-28T00:58:27.972Z,88.20
2022-07-28T01:01:53.217Z,89.70
2022-07-28T01:05:15.384Z,89.30
2022-07-28T01:08:47.767Z,89.20
2022-07-28T01:12:18.459Z,89.60
2022-07-28T01:15:48.474Z,89.50
2022-07-28T01:19:20.291Z,89.30
2022-07-28T01:23:01.790Z,89.70
2022-07-28T01:26:42.818Z,89.40
2022-07-28T01:30:21.302Z,89.40
2022-07-28T01:33:54.912Z,89.50
2022-07-28T01:37:19.882Z,90.20
2022-07-28T01:40:45.028Z,90.40
2022-07-28T01:44:12.077Z,90.80
2022-07-28T01:47:36.351Z,91.10
2022-07-28T01:50:58.433Z,91.00
2022-07-28T01:54:21.044Z,91.30
2022-07-28T01:57:43.937Z,91.10
2022-07-28T02:01:07.095Z,91.40
2022-07-28T02:04:33.234Z,91.70
2022-07-28T02:07:56.309Z,91.70
2022-07-28T02:11:18.366Z,91.90
2022-07-28T02:14:42.071Z,91.90
2022-07-28T02:18:05.714Z,91.90
2022-07-28T02:21:31.228Z,92.00
2022-07-28T02:24:53.940Z,92.40
2022-07-28T02:28:21.196Z,92.10
2022-07-28T02:31:49.192Z,92.20
2022-07-28T02:35:22.252Z,92.30
2022-07-28T02:38:49.213Z,92.50
2022-07-28T02:42:17.410Z,92.80
2022-07-28T02:45:44.489Z,92.70
2022-07-28T02:49:10.653Z,92.80
2022-07-28T02:52:33.779Z,92.80
2022-07-28T02:55:58.322Z,92.50
2022-07-28T02:59:21.295Z,92.80
2022-07-28T03:02:43.781Z,92.60
2022-07-28T03:06:05.683Z,92.60
2022-07-28T03:09:28.020Z,92.60
2022-07-28T03:12:51.736Z,92.70
2022-07-28T03:16:13.564Z,92.70
2022-07-28T03:19:35.513Z,92.80
2022-07-28T03:22:57.635Z,92.90
2022-07-28T03:26:25.513Z,93.10
2022-07-28T03:29:54.874Z,93.20
2022-07-28T03:33:18.265Z,93.30
2022-07-28T03:36:44.027Z,93.20
2022-07-28T03:40:09.973Z,93.30
2022-07-28T03:43:33.462Z,93.90
2022-07-28T03:46:56.644Z,93.60
2022-07-28T03:50:21.884Z,93.60
2022-07-28T03:53:44.344Z,93.60
2022-07-28T03:57:06.651Z,94.00
2022-07-28T04:00:28.619Z,94.20
2022-07-28T04:03:51.884Z,94.30
2022-07-28T04:07:13.691Z,94.10
2022-07-28T04:10:35.873Z,94.10
2022-07-28T04:13:57.744Z,94.00
2022-07-28T04:17:19.554Z,94.40
2022-07-28T04:20:42.744Z,94.60
2022-07-28T04:24:05.645Z,95.00
2022-07-28T04:27:27.506Z,95.00
2022-07-28T04:30:49.393Z,94.80
2022-07-28T04:34:11.653Z,94.50
2022-07-28T04:37:35.040Z,94.70
2022-07-28T04:40:57.031Z,94.80
2022-07-28T04:44:18.842Z,94.90
2022-07-28T04:47:40.731Z,94.90
2022-07-28T04:51:02.565Z,95.20
2022-07-28T04:54:26.877Z,95.30
2022-07-28T04:57:48.845Z,94.70
2022-07-28T05:01:10.685Z,94.80
2022-07-28T05:04:32.903Z,94.20
2022-07-28T05:07:56.658Z,93.90
2022-07-28T05:11:19.820Z,94.00
2022-07-28T05:14:41.603Z,93.70
2022-07-28T05:18:03.638Z,93.60
2022-07-28T05:21:25.433Z,93.20
2022-07-28T05:24:47.300Z,92.80
2022-07-28T05:28:10.573Z,92.10
2022-07-28T05:31:32.443Z,91.00
2022-07-28T05:34:54.780Z,91.50
2022-07-28T05:38:17.044Z,88.10
2022-07-28T05:41:38.897Z,85.80
2022-07-28T05:45:03.103Z,85.10
2022-07-28T05:48:37.424Z,82.80
2022-07-28T05:52:00.676Z,81.80
2022-07-28T05:55:22.488Z,83.80
2022-07-28T05:58:44.337Z,86.70
2022-07-28T06:02:10.357Z,90.10
2022-07-28T06:05:32.714Z,87.50
2022-07-28T06:08:54.504Z,82.60
2022-07-28T06:12:16.305Z,77.70
2022-07-28T06:15:38.204Z,73.30
2022-07-28T06:19:01.363Z,73.30
2022-07-28T06:22:26.540Z,67.90
2022-07-28T06:25:49.090Z,64.90
2022-07-28T06:29:10.921Z,67.00
2022-07-28T06:32:32.928Z,65.00
2022-07-28T06:35:57.011Z,63.60
2022-07-28T06:39:18.802Z,63.60
2022-07-28T06:42:41.580Z,63.50
2022-07-28T06:46:03.647Z,63.10
2022-07-28T06:49:25.451Z,63.50
2022-07-28T06:52:48.721Z,62.50
2022-07-28T06:56:13.778Z,63.60
2022-07-28T06:59:37.426Z,64.00
2022-07-28T07:03:00.924Z,64.40
2022-07-28T07:06:23.097Z,65.10
2022-07-28T07:09:46.249Z,64.30
2022-07-28T07:13:08.074Z,63.50
2022-07-28T07:16:30.001Z,63.50
2022-07-28T07:19:53.349Z,64.20
2022-07-28T07:23:15.764Z,64.30
2022-07-28T07:26:39.155Z,64.30
2022-07-28T07:30:02.288Z,63.40
2022-07-28T07:33:26.663Z,60.80
2022-07-28T07:36:48.632Z,61.90
2022-07-28T07:40:10.591Z,62.00
2022-07-28T07:43:33.828Z,60.40
2022-07-28T07:46:55.728Z,62.50
2022-07-28T07:50:17.547Z,60.90
2022-07-28T07:53:39.377Z,63.10
2022-07-28T07:57:01.270Z,60.30
2022-07-28T08:00:29.246Z,60.90
2022-07-28T08:03:53.729Z,62.10
2022-07-28T08:07:15.836Z,61.90
2022-07-28T08:10:39.266Z,61.60
2022-07-28T08:14:02.141Z,61.40
2022-07-28T08:17:26.404Z,61.40
2022-07-28T08:20:48.406Z,61.60
2022-07-28T08:24:10.926Z,61.40
2022-07-28T08:27:39.707Z,63.10
2022-07-28T08:31:01.736Z,59.40
2022-07-28T08:34:31.260Z,61.40
2022-07-28T08:37:55.330Z,59.70
2022-07-28T08:41:22.608Z,59.50
2022-07-28T08:44:51.293Z,59.60
2022-07-28T08:48:14.052Z,59.90
2022-07-28T08:51:38.099Z,60.10
2022-07-28T08:55:02.871Z,60.40
2022-07-28T08:58:24.825Z,58.70
2022-07-28T09:01:48.075Z,59.70
2022-07-28T09:05:10.389Z,60.10
2022-07-28T09:08:33.786Z,64.50
2022-07-28T09:11:55.602Z,63.20
2022-07-28T09:15:17.434Z,64.20
2022-07-28T09:18:39.231Z,61.70
2022-07-28T09:22:01.053Z,62.40
2022-07-28T09:25:25.196Z,66.20
2022-07-28T09:28:49.334Z,64.60
2022-07-28T09:32:17.134Z,64.10
2022-07-28T09:35:43.502Z,61.20
2022-07-28T09:39:06.928Z,60.80
2022-07-28T09:42:46.783Z,60.60
2022-07-28T09:46:10.439Z,60.30
2022-07-28T09:49:43.069Z,59.80
2022-07-28T09:53:27.323Z,62.00
2022-07-28T09:56:50.125Z,61.00
2022-07-28T10:00:25.631Z,62.20
2022-07-28T10:03:51.980Z,61.70
2022-07-28T10:07:14.486Z,62.00
2022-07-28T10:10:36.565Z,62.80
2022-07-28T10:14:03.433Z,60.90
2022-07-28T10:17:28.818Z,62.70
2022-07-28T10:20:50.761Z,60.90
2022-07-28T10:24:20.477Z,61.00
2022-07-28T10:27:45.929Z,61.60
2022-07-28T10:31:13.419Z,64.10
2022-07-28T10:34:43.244Z,65.70
2022-07-28T10:38:12.959Z,66.30
2022-07-28T10:41:45.507Z,66.30
2022-07-28T10:45:09.773Z,65.40
2022-07-28T10:48:32.140Z,65.70
2022-07-28T10:52:08.631Z,66.70
2022-07-28T10:55:48.769Z,65.60
2022-07-28T10:59:22.277Z,66.50
2022-07-28T11:02:52.631Z,65.40
2022-07-28T11:06:29.112Z,65.10
2022-07-28T11:09:52.332Z,66.60
2022-07-28T11:13:29.017Z,65.30
2022-07-28T11:17:11.499Z,65.60
2022-07-28T11:21:04.892Z,65.40
2022-07-28T11:25:18.444Z,63.80
2022-07-28T11:29:14.714Z,64.90
2022-07-28T11:32:56.414Z,66.20
2022-07-28T11:36:18.211Z,67.10
2022-07-28T11:39:43.880Z,65.70
2022-07-28T11:43:37.287Z,63.50
2022-07-28T11:47:16.835Z,64.60
2022-07-28T11:50:38.738Z,63.90
2022-07-28T11:54:02.801Z,63.60
2022-07-28T11:57:26.696Z,64.80
2022-07-28T12:00:48.522Z,65.00
2022-07-28T12:04:13.442Z,64.60
2022-07-28T12:07:38.309Z,64.00
2022-07-28T12:11:00.132Z,65.40
2022-07-28T12:14:22.516Z,62.70
2022-07-28T12:17:44.491Z,64.10
2022-07-28T12:21:07.675Z,63.20
2022-07-28T12:24:32.246Z,63.90
2022-07-28T12:28:17.171Z,62.10
2022-07-28T12:31:52.543Z,64.20
2022-07-28T12:35:16.283Z,64.30
2022-07-28T12:38:39.552Z,63.10
2022-07-28T12:42:03.401Z,63.80
2022-07-28T12:45:25.514Z,65.50
2022-07-28T12:48:48.509Z,63.70
2022-07-28T12:52:18.829Z,62.90
2022-07-28T12:55:45.443Z,62.80
2022-07-28T12:59:08.969Z,62.30
2022-07-28T13:02:36.141Z,62.20
2022-07-28T13:06:08.735Z,63.30
2022-07-28T13:09:33.029Z,62.30
2022-07-28T13:13:04.150Z,62.30
2022-07-28T13:16:28.043Z,61.90
2022-07-28T13:19:50.405Z,62.20
2022-07-28T13:23:12.236Z,62.80
2022-07-28T13:26:34.092Z,62.30
2022-07-28T13:29:57.294Z,61.20
2022-07-28T13:33:19.273Z,61.50
2022-07-28T13:36:43.169Z,62.40
2022-07-28T13:40:06.350Z,61.70
2022-07-28T13:43:35.989Z,61.90
2022-07-28T13:47:01.577Z,62.20
2022-07-28T13:50:26.101Z,61.70
2022-07-28T13:53:51.252Z,60.20
2022-07-28T13:57:15.686Z,61.10
2022-07-28T14:00:38.852Z,60.90
2022-07-28T14:04:02.395Z,60.90
2022-07-28T14:07:24.233Z,60.50
2022-07-28T14:10:48.187Z,60.60
2022-07-28T14:14:11.564Z,59.90
2022-07-28T14:17:44.820Z,60.30
2022-07-28T14:21:08.652Z,59.90
2022-07-28T14:24:30.677Z,59.00
2022-07-28T14:27:53.540Z,59.60
2022-07-28T14:31:15.526Z,59.80
2022-07-28T14:34:37.417Z,59.00
2022-07-28T14:41:45.218Z,59.70
2022-07-28T14:45:08.263Z,59.50
2022-07-28T14:48:30.075Z,59.60
2022-07-28T14:51:51.927Z,60.30
2022-07-28T14:55:15.109Z,59.70
2022-07-28T14:58:37.162Z,59.00
2022-07-28T15:02:00.144Z,59.10
2022-07-28T15:05:23.216Z,58.80
2022-07-28T15:08:45.186Z,58.80
2022-07-28T15:12:08.974Z,58.90
2022-07-28T15:15:30.846Z,58.40
2022-07-28T15:18:53.131Z,59.10
2022-07-28T15:22:15.006Z,58.90
2022-07-28T15:25:36.839Z,58.20
2022-07-28T15:29:00.233Z,58.90
2022-07-28T15:32:28.317Z,58.10
2022-07-28T15:35:58.706Z,58.30
2022-07-28T15:39:21.406Z,58.40
2022-07-28T15:42:43.200Z,58.40
2022-07-28T15:46:09.650Z,58.30
2022-07-28T15:49:31.552Z,58.20
2022-07-28T15:52:53.451Z,58.50
2022-07-28T15:56:15.270Z,59.30
2022-07-28T15:59:49.922Z,58.80
2022-07-28T16:03:14.213Z,59.80
2022-07-28T16:06:36.342Z,59.90
2022-07-28T16:09:58.603Z,59.60
2022-07-28T16:13:32.184Z,59.20
2022-07-28T16:16:59.145Z,58.60
2022-07-28T16:20:22.796Z,58.50
2022-07-28T16:23:44.626Z,59.30
2022-07-28T16:27:06.487Z,58.20
2022-07-28T16:30:28.300Z,58.00
2022-07-28T16:33:50.151Z,57.50
2022-07-28T16:37:18.963Z,57.30
2022-07-28T16:40:41.343Z,58.10
2022-07-28T16:44:03.615Z,58.10
2022-07-28T16:47:25.485Z,57.80
2022-07-28T16:50:47.473Z,60.00
2022-07-28T16:54:10.650Z,60.20
2022-07-28T16:57:32.496Z,58.70
2022-07-28T17:00:54.395Z,58.50
2022-07-28T17:04:18.805Z,58.70
2022-07-28T17:07:45.243Z,59.20
2022-07-28T17:11:08.971Z,59.50
2022-07-28T17:14:33.429Z,59.30
2022-07-28T17:17:55.509Z,60.50
2022-07-28T17:21:17.403Z,59.60
2022-07-28T17:24:39.312Z,59.50
2022-07-28T17:28:03.178Z,59.70
2022-07-28T17:31:26.092Z,58.80
2022-07-28T17:34:49.675Z,59.50
2022-07-28T17:38:11.837Z,59.60
2022-07-28T17:41:34.134Z,60.70
2022-07-28T17:44:57.361Z,60.50
2022-07-28T17:48:19.297Z,59.70
2022-07-28T17:51:41.274Z,59.50
2022-07-28T17:55:03.574Z,60.30
2022-07-28T17:58:28.047Z,60.80
2022-07-28T18:01:51.631Z,61.10
2022-07-28T18:05:13.531Z,61.60
2022-07-28T18:08:35.403Z,61.80
2022-07-28T18:11:58.898Z,62.30
2022-07-28T18:15:20.931Z,63.00
2022-07-28T18:18:44.114Z,63.10
2022-07-28T18:22:07.367Z,63.70
2022-07-28T18:25:29.238Z,62.90
2022-07-28T18:28:51.111Z,62.90
2022-07-28T18:32:12.972Z,62.80
2022-07-28T18:35:37.118Z,63.30
2022-07-28T18:38:59.818Z,64.00
2022-07-28T18:42:30.461Z,63.60
2022-07-28T18:45:54.397Z,63.50
2022-07-28T18:49:16.407Z,63.90
2022-07-28T18:52:40.288Z,64.20
2022-07-28T18:56:02.146Z,64.10
2022-07-28T18:59:24.126Z,64.30
2022-07-28T19:02:47.345Z,64.60
2022-07-28T19:06:10.571Z,64.50
2022-07-28T19:09:36.841Z,64.30
2022-07-28T19:12:59.121Z,64.70
2022-07-28T19:16:25.034Z,64.40
2022-07-28T19:19:47.758Z,65.10
2022-07-28T19:23:09.576Z,64.60
2022-07-28T19:26:32.921Z,64.30
2022-07-28T19:29:55.980Z,64.30
2022-07-28T19:33:19.278Z,65.00
2022-07-28T19:36:41.387Z,64.10
2022-07-28T19:40:03.636Z,64.40
2022-07-28T19:43:26.870Z,65.90
2022-07-28T19:46:48.732Z,65.80
2022-07-28T19:50:10.795Z,69.80
2022-07-28T19:53:34.499Z,77.70
2022-07-28T19:56:58.452Z,74.80
2022-07-28T20:00:23.045Z,75.90
2022-07-28T20:04:00.725Z,76.20
2022-07-28T20:07:26.151Z,76.70
2022-07-28T20:10:48.243Z,76.80
2022-07-28T20:14:11.130Z,79.60
2022-07-28T20:17:39.381Z,83.30
2022-07-28T20:21:01.769Z,83.80
2022-07-28T20:24:24.241Z,86.20
2022-07-28T20:27:46.212Z,90.50
2022-07-28T20:31:08.976Z,93.00
2022-07-28T20:34:34.634Z,99.00
2022-07-28T20:38:00.526Z,99.90
2022-07-28T20:41:22.383Z,99.90
2022-07-28T20:44:44.323Z,99.90
2022-07-28T20:48:06.356Z,99.90
2022-07-28T20:51:29.511Z,99.90
2022-07-28T20:54:54.554Z,99.90
2022-07-28T20:58:17.169Z,99.90
2022-07-28T21:01:43.532Z,99.90
2022-07-28T21:05:07.276Z,99.90
2022-07-28T21:08:30.564Z,99.90
2022-07-28T21:11:53.029Z,99.90
2022-07-28T21:15:16.257Z,99.90
2022-07-28T21:18:38.292Z,99.90
2022-07-28T21:22:00.284Z,99.90
2022-07-28T21:25:23.440Z,99.90
2022-07-28T21:28:45.478Z,99.90
2022-07-28T21:32:07.537Z,99.90
2022-07-28T21:35:29.469Z,99.90
2022-07-28T21:38:51.477Z,99.90
2022-07-28T21:42:14.759Z,99.90
2022-07-28T21:45:36.678Z,99.90
2022-07-28T21:48:59.638Z,99.90
2022-07-28T21:52:21.518Z,99.90
2022-07-28T21:55:46.896Z,99.90
2022-07-28T21:59:10.169Z,99.90
2022-07-28T22:02:31.965Z,99.90
2022-07-28T22:05:54.692Z,99.90
2022-07-28T22:09:16.586Z,99.90
2022-07-28T22:12:38.377Z,99.90
2022-07-28T22:16:01.617Z,99.90
2022-07-28T22:19:23.505Z,99.90
2022-07-28T22:22:45.358Z,99.90
2022-07-28T22:26:07.397Z,99.90
2022-07-28T22:29:31.140Z,99.90
2022-07-28T22:32:54.451Z,99.90
2022-07-28T22:36:16.260Z,99.90
2022-07-28T22:39:38.468Z,99.90
2022-07-28T22:43:00.275Z,99.90
2022-07-28T22:46:22.114Z,99.90
2022-07-28T22:49:45.306Z,99.90
2022-07-28T22:53:07.220Z,99.90
2022-07-28T22:56:34.876Z,99.90
2022-07-28T22:59:59.360Z,99.90
2022-07-28T23:03:21.236Z,99.90
2022-07-28T23:06:44.533Z,99.90
2022-07-28T23:10:07.599Z,99.90
2022-07-28T23:13:29.386Z,99.90
2022-07-28T23:16:51.205Z,99.90
2022-07-28T23:20:13.318Z,99.90
2022-07-28T23:23:37.064Z,99.90
2022-07-28T23:26:58.885Z,99.90
2022-07-28T23:30:20.697Z,99.90
2022-07-28T23:33:55.798Z,99.90
2022-07-28T23:37:19.193Z,99.90
2022-07-28T23:40:42.334Z,99.90
2022-07-28T23:44:04.431Z,99.90
2022-07-28T23:47:26.307Z,99.90
2022-07-28T23:50:48.099Z,99.90
2022-07-28T23:54:09.957Z,99.90
2022-07-28T23:57:33.502Z,99.90
